sensor_id;sensor_type;location;lat;lon;timestamp;P1;durP1;ratioP1;P2;durP2;ratioP2
23060;SDS011;11698;47.690;9.132;2023-02-27T00:01:15;1.30;;;0.75;;
23060;SDS011;11698;47.690;9.132;2023-02-27T00:03:41;1.88;;;1.55;;
23060;SDS011;11698;47.690;9.132;2023-02-27T00:06:07;2.07;;;1.43;;
23060;SDS011;11698;47.690;9.132;2023-02-27T00:08:33;1.37;;;1.13;;
23060;SDS011;11698;47.690;9.132;2023-02-27T00:10:59;1.60;;;1.13;;
23060;SDS011;11698;47.690;9.132;2023-02-27T00:13:25;1.65;;;1.55;;
23060;SDS011;11698;47.690;9.132;2023-02-27T00:15:51;2.58;;;1.48;;
23060;SDS011;11698;47.690;9.132;2023-02-27T00:18:17;1.15;;;1.05;;
23060;SDS011;11698;47.690;9.132;2023-02-27T00:20:43;1.77;;;1.33;;
23060;SDS011;11698;47.690;9.132;2023-02-27T00:23:09;2.30;;;1.40;;
23060;SDS011;11698;47.690;9.132;2023-02-27T00:25:35;1.38;;;1.23;;
23060;SDS011;11698;47.690;9.132;2023-02-27T00:28:02;1.45;;;0.93;;
23060;SDS011;11698;47.690;9.132;2023-02-27T00:30:28;1.63;;;1.20;;
23060;SDS011;11698;47.690;9.132;2023-02-27T00:32:54;1.23;;;1.10;;
23060;SDS011;11698;47.690;9.132;2023-02-27T00:35:20;2.50;;;1.90;;
23060;SDS011;11698;47.690;9.132;2023-02-27T00:37:47;1.40;;;1.30;;
23060;SDS011;11698;47.690;9.132;2023-02-27T00:40:13;1.45;;;1.23;;
23060;SDS011;11698;47.690;9.132;2023-02-27T00:42:39;1.60;;;1.20;;
23060;SDS011;11698;47.690;9.132;2023-02-27T00:45:05;1.88;;;1.50;;
23060;SDS011;11698;47.690;9.132;2023-02-27T00:47:32;1.98;;;1.20;;
23060;SDS011;11698;47.690;9.132;2023-02-27T00:49:58;1.07;;;0.87;;
23060;SDS011;11698;47.690;9.132;2023-02-27T00:52:24;1.35;;;1.25;;
23060;SDS011;11698;47.690;9.132;2023-02-27T00:54:50;1.85;;;1.40;;
23060;SDS011;11698;47.690;9.132;2023-02-27T00:57:16;1.50;;;1.17;;
23060;SDS011;11698;47.690;9.132;2023-02-27T00:59:42;1.35;;;1.20;;
23060;SDS011;11698;47.690;9.132;2023-02-27T01:02:08;1.40;;;1.10;;
23060;SDS011;11698;47.690;9.132;2023-02-27T01:04:34;1.70;;;1.35;;
23060;SDS011;11698;47.690;9.132;2023-02-27T01:07:00;1.42;;;1.30;;
23060;SDS011;11698;47.690;9.132;2023-02-27T01:09:26;1.25;;;1.15;;
23060;SDS011;11698;47.690;9.132;2023-02-27T01:11:52;1.30;;;1.20;;
23060;SDS011;11698;47.690;9.132;2023-02-27T01:14:18;1.27;;;0.98;;
23060;SDS011;11698;47.690;9.132;2023-02-27T01:16:44;1.58;;;1.20;;
23060;SDS011;11698;47.690;9.132;2023-02-27T01:19:11;1.33;;;1.23;;
23060;SDS011;11698;47.690;9.132;2023-02-27T01:21:37;2.85;;;1.55;;
23060;SDS011;11698;47.690;9.132;2023-02-27T01:24:05;1.10;;;1.00;;
23060;SDS011;11698;47.690;9.132;2023-02-27T01:26:35;1.30;;;1.20;;
23060;SDS011;11698;47.690;9.132;2023-02-27T01:29:01;1.75;;;1.30;;
23060;SDS011;11698;47.690;9.132;2023-02-27T01:31:27;1.95;;;1.30;;
23060;SDS011;11698;47.690;9.132;2023-02-27T01:33:53;1.50;;;1.40;;
23060;SDS011;11698;47.690;9.132;2023-02-27T01:36:19;1.50;;;1.40;;
23060;SDS011;11698;47.690;9.132;2023-02-27T01:38:45;2.60;;;1.30;;
23060;SDS011;11698;47.690;9.132;2023-02-27T01:41:11;2.33;;;1.42;;
23060;SDS011;11698;47.690;9.132;2023-02-27T01:46:19;2.45;;;1.30;;
23060;SDS011;11698;47.690;9.132;2023-02-27T01:48:45;1.47;;;1.37;;
23060;SDS011;11698;47.690;9.132;2023-02-27T01:51:12;1.95;;;1.48;;
23060;SDS011;11698;47.690;9.132;2023-02-27T01:53:39;1.73;;;1.50;;
23060;SDS011;11698;47.690;9.132;2023-02-27T01:56:10;1.40;;;1.15;;
23060;SDS011;11698;47.690;9.132;2023-02-27T01:58:37;1.50;;;1.35;;
23060;SDS011;11698;47.690;9.132;2023-02-27T02:01:03;1.55;;;1.10;;
23060;SDS011;11698;47.690;9.132;2023-02-27T02:03:37;2.63;;;1.65;;
23060;SDS011;11698;47.690;9.132;2023-02-27T02:06:06;2.90;;;1.42;;
23060;SDS011;11698;47.690;9.132;2023-02-27T02:08:37;1.95;;;1.60;;
23060;SDS011;11698;47.690;9.132;2023-02-27T02:11:04;2.30;;;1.42;;
23060;SDS011;11698;47.690;9.132;2023-02-27T02:13:30;1.80;;;1.53;;
23060;SDS011;11698;47.690;9.132;2023-02-27T02:16:07;1.70;;;1.52;;
23060;SDS011;11698;47.690;9.132;2023-02-27T02:23:44;1.83;;;1.63;;
23060;SDS011;11698;47.690;9.132;2023-02-27T02:26:34;2.35;;;1.55;;
23060;SDS011;11698;47.690;9.132;2023-02-27T02:42:18;1.75;;;1.60;;
23060;SDS011;11698;47.690;9.132;2023-02-27T02:44:56;2.00;;;1.10;;
23060;SDS011;11698;47.690;9.132;2023-02-27T02:47:34;2.35;;;1.70;;
23060;SDS011;11698;47.690;9.132;2023-02-27T02:55:14;1.40;;;1.00;;
23060;SDS011;11698;47.690;9.132;2023-02-27T02:57:47;1.38;;;1.25;;
23060;SDS011;11698;47.690;9.132;2023-02-27T03:00:15;1.77;;;1.50;;
23060;SDS011;11698;47.690;9.132;2023-02-27T03:02:46;2.10;;;1.38;;
23060;SDS011;11698;47.690;9.132;2023-02-27T03:05:16;1.33;;;1.00;;
23060;SDS011;11698;47.690;9.132;2023-02-27T03:08:02;1.55;;;1.38;;
23060;SDS011;11698;47.690;9.132;2023-02-27T03:10:33;1.13;;;1.02;;
23060;SDS011;11698;47.690;9.132;2023-02-27T03:13:02;1.70;;;1.30;;
23060;SDS011;11698;47.690;9.132;2023-02-27T03:15:31;1.60;;;1.50;;
23060;SDS011;11698;47.690;9.132;2023-02-27T03:18:05;1.83;;;1.38;;
23060;SDS011;11698;47.690;9.132;2023-02-27T03:20:38;1.40;;;1.30;;
23060;SDS011;11698;47.690;9.132;2023-02-27T03:23:13;2.13;;;1.43;;
23060;SDS011;11698;47.690;9.132;2023-02-27T03:25:41;1.70;;;1.40;;
23060;SDS011;11698;47.690;9.132;2023-02-27T03:28:11;2.00;;;1.40;;
23060;SDS011;11698;47.690;9.132;2023-02-27T03:30:52;1.60;;;1.25;;
23060;SDS011;11698;47.690;9.132;2023-02-27T03:33:36;1.60;;;1.30;;
23060;SDS011;11698;47.690;9.132;2023-02-27T03:38:57;1.42;;;1.30;;
23060;SDS011;11698;47.690;9.132;2023-02-27T03:41:28;1.47;;;1.37;;
23060;SDS011;11698;47.690;9.132;2023-02-27T03:46:25;2.30;;;1.33;;
23060;SDS011;11698;47.690;9.132;2023-02-27T03:48:52;3.35;;;1.60;;
23060;SDS011;11698;47.690;9.132;2023-02-27T03:51:22;1.88;;;1.50;;
23060;SDS011;11698;47.690;9.132;2023-02-27T03:54:05;2.83;;;1.60;;
23060;SDS011;11698;47.690;9.132;2023-02-27T03:56:41;2.17;;;1.50;;
23060;SDS011;11698;47.690;9.132;2023-02-27T03:59:09;3.10;;;1.73;;
23060;SDS011;11698;47.690;9.132;2023-02-27T04:01:35;1.35;;;1.15;;
23060;SDS011;11698;47.690;9.132;2023-02-27T04:04:02;3.00;;;1.90;;
23060;SDS011;11698;47.690;9.132;2023-02-27T04:06:30;2.40;;;1.40;;
23060;SDS011;11698;47.690;9.132;2023-02-27T04:11:52;2.17;;;1.70;;
23060;SDS011;11698;47.690;9.132;2023-02-27T04:14:35;1.77;;;1.40;;
23060;SDS011;11698;47.690;9.132;2023-02-27T04:20:02;3.00;;;1.70;;
23060;SDS011;11698;47.690;9.132;2023-02-27T04:24:59;1.55;;;1.45;;
23060;SDS011;11698;47.690;9.132;2023-02-27T04:34:58;3.03;;;1.60;;
23060;SDS011;11698;47.690;9.132;2023-02-27T04:37:29;1.58;;;1.40;;
23060;SDS011;11698;47.690;9.132;2023-02-27T04:40:03;2.00;;;1.45;;
23060;SDS011;11698;47.690;9.132;2023-02-27T04:42:32;2.13;;;1.63;;
23060;SDS011;11698;47.690;9.132;2023-02-27T04:45:01;1.90;;;1.50;;
23060;SDS011;11698;47.690;9.132;2023-02-27T04:47:30;1.98;;;1.60;;
23060;SDS011;11698;47.690;9.132;2023-02-27T04:49:58;1.58;;;1.27;;
23060;SDS011;11698;47.690;9.132;2023-02-27T04:52:30;2.78;;;1.65;;
23060;SDS011;11698;47.690;9.132;2023-02-27T04:55:03;2.80;;;1.70;;
23060;SDS011;11698;47.690;9.132;2023-02-27T04:57:35;2.17;;;1.60;;
23060;SDS011;11698;47.690;9.132;2023-02-27T05:00:03;2.05;;;1.42;;
23060;SDS011;11698;47.690;9.132;2023-02-27T05:02:32;3.30;;;1.67;;
23060;SDS011;11698;47.690;9.132;2023-02-27T05:05:02;1.95;;;1.30;;
23060;SDS011;11698;47.690;9.132;2023-02-27T05:07:30;2.00;;;1.80;;
23060;SDS011;11698;47.690;9.132;2023-02-27T05:09:58;1.83;;;1.48;;
23060;SDS011;11698;47.690;9.132;2023-02-27T05:12:29;2.20;;;1.47;;
23060;SDS011;11698;47.690;9.132;2023-02-27T05:14:59;2.63;;;1.70;;
23060;SDS011;11698;47.690;9.132;2023-02-27T05:17:29;1.77;;;1.63;;
23060;SDS011;11698;47.690;9.132;2023-02-27T05:19:56;1.85;;;1.48;;
23060;SDS011;11698;47.690;9.132;2023-02-27T05:22:27;2.67;;;1.85;;
23060;SDS011;11698;47.690;9.132;2023-02-27T05:30:07;1.70;;;1.60;;
23060;SDS011;11698;47.690;9.132;2023-02-27T05:32:40;1.70;;;1.60;;
23060;SDS011;11698;47.690;9.132;2023-02-27T05:37:42;2.90;;;1.60;;
23060;SDS011;11698;47.690;9.132;2023-02-27T05:40:10;2.20;;;1.60;;
23060;SDS011;11698;47.690;9.132;2023-02-27T05:42:39;1.40;;;1.20;;
23060;SDS011;11698;47.690;9.132;2023-02-27T05:45:07;1.33;;;1.20;;
23060;SDS011;11698;47.690;9.132;2023-02-27T05:47:35;1.63;;;1.40;;
23060;SDS011;11698;47.690;9.132;2023-02-27T05:52:28;1.60;;;1.48;;
23060;SDS011;11698;47.690;9.132;2023-02-27T05:54:58;1.30;;;1.20;;
23060;SDS011;11698;47.690;9.132;2023-02-27T05:57:28;1.73;;;1.60;;
23060;SDS011;11698;47.690;9.132;2023-02-27T06:02:39;2.72;;;1.50;;
23060;SDS011;11698;47.690;9.132;2023-02-27T06:05:05;1.83;;;1.50;;
23060;SDS011;11698;47.690;9.132;2023-02-27T06:07:32;2.00;;;1.67;;
23060;SDS011;11698;47.690;9.132;2023-02-27T06:09:58;2.88;;;1.98;;
23060;SDS011;11698;47.690;9.132;2023-02-27T06:12:24;2.17;;;1.45;;
23060;SDS011;11698;47.690;9.132;2023-02-27T06:14:50;2.67;;;1.60;;
23060;SDS011;11698;47.690;9.132;2023-02-27T06:17:16;2.17;;;1.60;;
23060;SDS011;11698;47.690;9.132;2023-02-27T06:19:42;2.17;;;1.52;;
23060;SDS011;11698;47.690;9.132;2023-02-27T06:22:09;2.58;;;1.70;;
23060;SDS011;11698;47.690;9.132;2023-02-27T06:24:35;3.03;;;1.63;;
23060;SDS011;11698;47.690;9.132;2023-02-27T06:27:01;3.17;;;1.90;;
23060;SDS011;11698;47.690;9.132;2023-02-27T06:29:27;2.08;;;1.80;;
23060;SDS011;11698;47.690;9.132;2023-02-27T06:31:54;2.25;;;1.70;;
23060;SDS011;11698;47.690;9.132;2023-02-27T06:34:20;1.77;;;1.55;;
23060;SDS011;11698;47.690;9.132;2023-02-27T06:36:46;1.80;;;1.63;;
23060;SDS011;11698;47.690;9.132;2023-02-27T06:39:13;2.50;;;1.93;;
23060;SDS011;11698;47.690;9.132;2023-02-27T06:41:39;3.85;;;1.83;;
23060;SDS011;11698;47.690;9.132;2023-02-27T06:44:05;1.92;;;1.70;;
23060;SDS011;11698;47.690;9.132;2023-02-27T06:46:30;1.90;;;1.60;;
23060;SDS011;11698;47.690;9.132;2023-02-27T06:48:56;2.35;;;1.80;;
23060;SDS011;11698;47.690;9.132;2023-02-27T06:51:23;1.43;;;1.33;;
23060;SDS011;11698;47.690;9.132;2023-02-27T06:53:49;1.77;;;1.65;;
23060;SDS011;11698;47.690;9.132;2023-02-27T06:56:15;3.03;;;1.88;;
23060;SDS011;11698;47.690;9.132;2023-02-27T06:58:41;2.53;;;1.90;;
23060;SDS011;11698;47.690;9.132;2023-02-27T07:01:07;2.55;;;1.58;;
23060;SDS011;11698;47.690;9.132;2023-02-27T07:03:33;1.90;;;1.75;;
23060;SDS011;11698;47.690;9.132;2023-02-27T07:05:59;2.65;;;1.55;;
23060;SDS011;11698;47.690;9.132;2023-02-27T07:08:26;2.28;;;1.92;;
23060;SDS011;11698;47.690;9.132;2023-02-27T07:10:52;2.33;;;1.63;;
23060;SDS011;11698;47.690;9.132;2023-02-27T07:13:18;1.73;;;1.38;;
23060;SDS011;11698;47.690;9.132;2023-02-27T07:15:44;1.95;;;1.65;;
23060;SDS011;11698;47.690;9.132;2023-02-27T07:18:10;1.30;;;1.00;;
23060;SDS011;11698;47.690;9.132;2023-02-27T07:20:36;2.30;;;1.53;;
23060;SDS011;11698;47.690;9.132;2023-02-27T07:23:02;2.33;;;1.70;;
23060;SDS011;11698;47.690;9.132;2023-02-27T07:25:28;1.60;;;1.50;;
23060;SDS011;11698;47.690;9.132;2023-02-27T07:27:54;2.22;;;1.70;;
23060;SDS011;11698;47.690;9.132;2023-02-27T07:30:20;2.03;;;1.50;;
23060;SDS011;11698;47.690;9.132;2023-02-27T07:32:46;2.83;;;1.42;;
23060;SDS011;11698;47.690;9.132;2023-02-27T07:35:12;2.08;;;1.63;;
23060;SDS011;11698;47.690;9.132;2023-02-27T07:37:40;2.80;;;1.60;;
23060;SDS011;11698;47.690;9.132;2023-02-27T07:40:06;3.38;;;1.65;;
23060;SDS011;11698;47.690;9.132;2023-02-27T07:42:33;3.00;;;1.80;;
23060;SDS011;11698;47.690;9.132;2023-02-27T07:44:59;1.90;;;1.50;;
23060;SDS011;11698;47.690;9.132;2023-02-27T07:47:25;2.65;;;1.45;;
23060;SDS011;11698;47.690;9.132;2023-02-27T07:49:51;3.42;;;1.77;;
23060;SDS011;11698;47.690;9.132;2023-02-27T07:52:17;2.28;;;1.60;;
23060;SDS011;11698;47.690;9.132;2023-02-27T07:54:43;2.78;;;1.95;;
23060;SDS011;11698;47.690;9.132;2023-02-27T07:57:09;2.25;;;1.90;;
23060;SDS011;11698;47.690;9.132;2023-02-27T07:59:35;1.63;;;1.52;;
23060;SDS011;11698;47.690;9.132;2023-02-27T08:02:01;2.60;;;1.83;;
23060;SDS011;11698;47.690;9.132;2023-02-27T08:04:27;2.35;;;1.65;;
23060;SDS011;11698;47.690;9.132;2023-02-27T08:06:53;1.50;;;1.40;;
23060;SDS011;11698;47.690;9.132;2023-02-27T08:09:19;4.15;;;1.88;;
23060;SDS011;11698;47.690;9.132;2023-02-27T08:11:45;3.15;;;1.98;;
23060;SDS011;11698;47.690;9.132;2023-02-27T08:14:11;1.85;;;1.75;;
23060;SDS011;11698;47.690;9.132;2023-02-27T08:16:37;3.17;;;1.67;;
23060;SDS011;11698;47.690;9.132;2023-02-27T08:19:03;2.55;;;1.58;;
23060;SDS011;11698;47.690;9.132;2023-02-27T08:21:29;3.80;;;1.60;;
23060;SDS011;11698;47.690;9.132;2023-02-27T08:23:55;2.53;;;1.60;;
23060;SDS011;11698;47.690;9.132;2023-02-27T08:26:21;1.93;;;1.67;;
23060;SDS011;11698;47.690;9.132;2023-02-27T08:28:47;2.55;;;1.35;;
23060;SDS011;11698;47.690;9.132;2023-02-27T08:31:13;3.50;;;2.00;;
23060;SDS011;11698;47.690;9.132;2023-02-27T08:33:40;3.40;;;1.77;;
23060;SDS011;11698;47.690;9.132;2023-02-27T08:36:06;1.58;;;1.48;;
23060;SDS011;11698;47.690;9.132;2023-02-27T08:38:32;3.28;;;1.75;;
23060;SDS011;11698;47.690;9.132;2023-02-27T08:40:58;2.42;;;1.92;;
23060;SDS011;11698;47.690;9.132;2023-02-27T08:43:24;2.08;;;1.77;;
23060;SDS011;11698;47.690;9.132;2023-02-27T08:45:50;2.93;;;1.87;;
23060;SDS011;11698;47.690;9.132;2023-02-27T08:48:16;3.73;;;1.83;;
23060;SDS011;11698;47.690;9.132;2023-02-27T08:50:42;2.38;;;1.35;;
23060;SDS011;11698;47.690;9.132;2023-02-27T08:53:09;1.80;;;1.70;;
23060;SDS011;11698;47.690;9.132;2023-02-27T08:55:35;2.53;;;1.85;;
23060;SDS011;11698;47.690;9.132;2023-02-27T08:58:01;1.90;;;1.60;;
23060;SDS011;11698;47.690;9.132;2023-02-27T09:00:27;2.92;;;1.55;;
23060;SDS011;11698;47.690;9.132;2023-02-27T09:02:53;2.65;;;1.92;;
23060;SDS011;11698;47.690;9.132;2023-02-27T09:05:20;1.90;;;1.50;;
23060;SDS011;11698;47.690;9.132;2023-02-27T09:07:47;2.03;;;1.80;;
23060;SDS011;11698;47.690;9.132;2023-02-27T09:10:13;3.80;;;1.95;;
23060;SDS011;11698;47.690;9.132;2023-02-27T09:12:39;1.70;;;1.60;;
23060;SDS011;11698;47.690;9.132;2023-02-27T09:15:06;2.55;;;2.00;;
23060;SDS011;11698;47.690;9.132;2023-02-27T09:17:33;3.03;;;2.05;;
23060;SDS011;11698;47.690;9.132;2023-02-27T09:19:59;2.10;;;1.70;;
23060;SDS011;11698;47.690;9.132;2023-02-27T09:22:25;2.30;;;1.80;;
23060;SDS011;11698;47.690;9.132;2023-02-27T09:24:51;3.10;;;2.05;;
23060;SDS011;11698;47.690;9.132;2023-02-27T09:27:17;1.83;;;1.42;;
23060;SDS011;11698;47.690;9.132;2023-02-27T09:29:43;2.05;;;1.75;;
23060;SDS011;11698;47.690;9.132;2023-02-27T09:32:09;1.75;;;1.40;;
23060;SDS011;11698;47.690;9.132;2023-02-27T09:34:35;1.88;;;1.70;;
23060;SDS011;11698;47.690;9.132;2023-02-27T09:37:01;2.22;;;2.00;;
23060;SDS011;11698;47.690;9.132;2023-02-27T09:39:27;2.35;;;1.67;;
23060;SDS011;11698;47.690;9.132;2023-02-27T09:42:01;2.30;;;1.85;;
23060;SDS011;11698;47.690;9.132;2023-02-27T09:44:34;2.58;;;1.90;;
23060;SDS011;11698;47.690;9.132;2023-02-27T09:47:03;3.72;;;2.10;;
23060;SDS011;11698;47.690;9.132;2023-02-27T09:49:30;2.70;;;1.98;;
23060;SDS011;11698;47.690;9.132;2023-02-27T09:51:57;3.17;;;1.70;;
23060;SDS011;11698;47.690;9.132;2023-02-27T09:54:23;1.85;;;1.55;;
23060;SDS011;11698;47.690;9.132;2023-02-27T09:56:53;3.30;;;1.50;;
23060;SDS011;11698;47.690;9.132;2023-02-27T10:01:58;2.90;;;1.90;;
23060;SDS011;11698;47.690;9.132;2023-02-27T10:16:53;3.03;;;1.65;;
23060;SDS011;11698;47.690;9.132;2023-02-27T10:19:29;2.83;;;2.00;;
23060;SDS011;11698;47.690;9.132;2023-02-27T10:21:56;2.28;;;1.85;;
23060;SDS011;11698;47.690;9.132;2023-02-27T10:25:23;2.10;;;1.80;;
23060;SDS011;11698;47.690;9.132;2023-02-27T10:27:19;2.08;;;1.63;;
23060;SDS011;11698;47.690;9.132;2023-02-27T10:29:46;2.47;;;2.00;;
23060;SDS011;11698;47.690;9.132;2023-02-27T10:32:14;2.78;;;1.92;;
23060;SDS011;11698;47.690;9.132;2023-02-27T10:34:42;3.40;;;1.88;;
23060;SDS011;11698;47.690;9.132;2023-02-27T10:37:12;2.33;;;1.95;;
23060;SDS011;11698;47.690;9.132;2023-02-27T10:40:00;3.22;;;1.80;;
23060;SDS011;11698;47.690;9.132;2023-02-27T10:42:26;2.60;;;1.80;;
23060;SDS011;11698;47.690;9.132;2023-02-27T10:44:55;1.90;;;1.50;;
23060;SDS011;11698;47.690;9.132;2023-02-27T10:47:22;4.10;;;1.70;;
23060;SDS011;11698;47.690;9.132;2023-02-27T10:49:48;2.28;;;1.77;;
23060;SDS011;11698;47.690;9.132;2023-02-27T10:55:01;2.22;;;1.95;;
23060;SDS011;11698;47.690;9.132;2023-02-27T10:57:41;2.28;;;1.67;;
23060;SDS011;11698;47.690;9.132;2023-02-27T11:00:09;3.22;;;1.70;;
23060;SDS011;11698;47.690;9.132;2023-02-27T11:02:47;2.25;;;1.60;;
23060;SDS011;11698;47.690;9.132;2023-02-27T11:07:45;2.67;;;1.98;;
23060;SDS011;11698;47.690;9.132;2023-02-27T11:12:37;2.97;;;2.10;;
23060;SDS011;11698;47.690;9.132;2023-02-27T11:17:41;3.05;;;1.83;;
23060;SDS011;11698;47.690;9.132;2023-02-27T11:23:01;2.85;;;1.80;;
23060;SDS011;11698;47.690;9.132;2023-02-27T11:25:27;3.20;;;1.85;;
23060;SDS011;11698;47.690;9.132;2023-02-27T11:27:53;2.83;;;1.40;;
23060;SDS011;11698;47.690;9.132;2023-02-27T11:30:36;2.60;;;2.10;;
23060;SDS011;11698;47.690;9.132;2023-02-27T11:33:02;2.22;;;1.65;;
23060;SDS011;11698;47.690;9.132;2023-02-27T11:38:01;2.13;;;1.92;;
23060;SDS011;11698;47.690;9.132;2023-02-27T11:40:32;2.15;;;1.60;;
23060;SDS011;11698;47.690;9.132;2023-02-27T11:45:28;3.00;;;1.77;;
23060;SDS011;11698;47.690;9.132;2023-02-27T11:48:44;2.47;;;1.95;;
23060;SDS011;11698;47.690;9.132;2023-02-27T11:50:46;3.28;;;1.90;;
23060;SDS011;11698;47.690;9.132;2023-02-27T11:55:42;2.97;;;1.80;;
23060;SDS011;11698;47.690;9.132;2023-02-27T11:58:19;2.85;;;1.83;;
23060;SDS011;11698;47.690;9.132;2023-02-27T12:01:05;2.40;;;1.90;;
23060;SDS011;11698;47.690;9.132;2023-02-27T12:03:34;2.05;;;1.70;;
23060;SDS011;11698;47.690;9.132;2023-02-27T12:06:09;2.03;;;1.70;;
23060;SDS011;11698;47.690;9.132;2023-02-27T12:08:46;3.27;;;1.83;;
23060;SDS011;11698;47.690;9.132;2023-02-27T12:11:15;4.20;;;1.80;;
23060;SDS011;11698;47.690;9.132;2023-02-27T12:13:47;3.30;;;1.95;;
23060;SDS011;11698;47.690;9.132;2023-02-27T12:18:53;3.25;;;1.85;;
23060;SDS011;11698;47.690;9.132;2023-02-27T12:21:23;2.60;;;1.90;;
23060;SDS011;11698;47.690;9.132;2023-02-27T12:23:52;2.65;;;2.10;;
23060;SDS011;11698;47.690;9.132;2023-02-27T12:26:33;3.35;;;2.10;;
23060;SDS011;11698;47.690;9.132;2023-02-27T12:31:34;3.25;;;2.20;;
23060;SDS011;11698;47.690;9.132;2023-02-27T12:36:32;1.90;;;1.70;;
23060;SDS011;11698;47.690;9.132;2023-02-27T12:38:57;3.67;;;2.38;;
23060;SDS011;11698;47.690;9.132;2023-02-27T12:52:04;2.30;;;2.05;;
23060;SDS011;11698;47.690;9.132;2023-02-27T13:02:27;2.58;;;2.20;;
23060;SDS011;11698;47.690;9.132;2023-02-27T13:07:34;4.28;;;2.33;;
23060;SDS011;11698;47.690;9.132;2023-02-27T13:10:14;3.53;;;2.53;;
23060;SDS011;11698;47.690;9.132;2023-02-27T13:17:47;2.58;;;2.30;;
23060;SDS011;11698;47.690;9.132;2023-02-27T13:25:14;2.43;;;2.23;;
23060;SDS011;11698;47.690;9.132;2023-02-27T13:27:45;3.40;;;2.17;;
23060;SDS011;11698;47.690;9.132;2023-02-27T13:30:19;2.20;;;2.00;;
23060;SDS011;11698;47.690;9.132;2023-02-27T13:32:49;3.05;;;2.35;;
23060;SDS011;11698;47.690;9.132;2023-02-27T13:35:34;2.63;;;1.98;;
23060;SDS011;11698;47.690;9.132;2023-02-27T13:38:27;2.87;;;2.23;;
23060;SDS011;11698;47.690;9.132;2023-02-27T13:40:49;3.78;;;2.30;;
23060;SDS011;11698;47.690;9.132;2023-02-27T13:46:03;3.22;;;2.38;;
23060;SDS011;11698;47.690;9.132;2023-02-27T13:48:49;2.97;;;2.15;;
23060;SDS011;11698;47.690;9.132;2023-02-27T13:56:50;2.70;;;2.28;;
23060;SDS011;11698;47.690;9.132;2023-02-27T13:59:32;2.90;;;2.30;;
23060;SDS011;11698;47.690;9.132;2023-02-27T14:04:28;3.63;;;2.05;;
23060;SDS011;11698;47.690;9.132;2023-02-27T14:07:11;3.30;;;2.22;;
23060;SDS011;11698;47.690;9.132;2023-02-27T14:09:40;2.08;;;1.83;;
23060;SDS011;11698;47.690;9.132;2023-02-27T14:12:06;2.92;;;2.25;;
23060;SDS011;11698;47.690;9.132;2023-02-27T14:14:51;2.92;;;2.10;;
23060;SDS011;11698;47.690;9.132;2023-02-27T14:17:39;5.57;;;2.75;;
23060;SDS011;11698;47.690;9.132;2023-02-27T14:22:38;3.03;;;2.00;;
23060;SDS011;11698;47.690;9.132;2023-02-27T14:32:47;2.83;;;2.30;;
23060;SDS011;11698;47.690;9.132;2023-02-27T14:35:19;2.50;;;1.95;;
23060;SDS011;11698;47.690;9.132;2023-02-27T14:37:45;2.80;;;2.05;;
23060;SDS011;11698;47.690;9.132;2023-02-27T14:40:16;3.20;;;1.80;;
23060;SDS011;11698;47.690;9.132;2023-02-27T14:45:12;4.20;;;2.25;;
23060;SDS011;11698;47.690;9.132;2023-02-27T14:47:41;2.40;;;1.80;;
23060;SDS011;11698;47.690;9.132;2023-02-27T14:50:21;3.50;;;1.83;;
23060;SDS011;11698;47.690;9.132;2023-02-27T14:52:47;2.13;;;1.48;;
23060;SDS011;11698;47.690;9.132;2023-02-27T14:55:21;3.47;;;2.17;;
23060;SDS011;11698;47.690;9.132;2023-02-27T14:57:55;4.90;;;2.42;;
23060;SDS011;11698;47.690;9.132;2023-02-27T15:03:25;2.67;;;1.80;;
23060;SDS011;11698;47.690;9.132;2023-02-27T15:05:53;3.63;;;2.10;;
23060;SDS011;11698;47.690;9.132;2023-02-27T15:08:21;3.05;;;2.00;;
23060;SDS011;11698;47.690;9.132;2023-02-27T15:10:49;2.83;;;2.10;;
23060;SDS011;11698;47.690;9.132;2023-02-27T15:13:20;1.92;;;1.73;;
23060;SDS011;11698;47.690;9.132;2023-02-27T15:15:47;2.08;;;1.55;;
23060;SDS011;11698;47.690;9.132;2023-02-27T15:18:16;3.80;;;1.80;;
23060;SDS011;11698;47.690;9.132;2023-02-27T15:20:42;2.80;;;1.98;;
23060;SDS011;11698;47.690;9.132;2023-02-27T15:23:24;2.50;;;1.95;;
23060;SDS011;11698;47.690;9.132;2023-02-27T15:25:53;5.05;;;2.28;;
23060;SDS011;11698;47.690;9.132;2023-02-27T15:28:21;3.10;;;1.83;;
23060;SDS011;11698;47.690;9.132;2023-02-27T15:30:51;2.30;;;1.85;;
23060;SDS011;11698;47.690;9.132;2023-02-27T15:33:18;2.17;;;1.98;;
23060;SDS011;11698;47.690;9.132;2023-02-27T15:35:46;2.47;;;1.85;;
23060;SDS011;11698;47.690;9.132;2023-02-27T15:38:26;2.72;;;1.83;;
23060;SDS011;11698;47.690;9.132;2023-02-27T15:40:52;3.85;;;2.13;;
23060;SDS011;11698;47.690;9.132;2023-02-27T15:43:19;3.33;;;1.88;;
23060;SDS011;11698;47.690;9.132;2023-02-27T15:45:46;2.07;;;1.87;;
23060;SDS011;11698;47.690;9.132;2023-02-27T15:48:16;1.95;;;1.70;;
23060;SDS011;11698;47.690;9.132;2023-02-27T15:50:52;2.85;;;1.98;;
23060;SDS011;11698;47.690;9.132;2023-02-27T15:53:19;3.03;;;1.98;;
23060;SDS011;11698;47.690;9.132;2023-02-27T15:55:50;2.92;;;1.85;;
23060;SDS011;11698;47.690;9.132;2023-02-27T15:58:21;3.35;;;2.08;;
23060;SDS011;11698;47.690;9.132;2023-02-27T16:00:50;2.13;;;1.83;;
23060;SDS011;11698;47.690;9.132;2023-02-27T16:03:18;5.70;;;2.40;;
23060;SDS011;11698;47.690;9.132;2023-02-27T16:05:48;3.08;;;1.95;;
23060;SDS011;11698;47.690;9.132;2023-02-27T16:08:16;3.47;;;2.28;;
23060;SDS011;11698;47.690;9.132;2023-02-27T16:10:43;3.08;;;2.15;;
23060;SDS011;11698;47.690;9.132;2023-02-27T16:18:34;2.58;;;1.95;;
23060;SDS011;11698;47.690;9.132;2023-02-27T16:21:14;3.70;;;1.90;;
23060;SDS011;11698;47.690;9.132;2023-02-27T16:23:40;2.08;;;1.85;;
23060;SDS011;11698;47.690;9.132;2023-02-27T16:26:26;2.67;;;1.90;;
23060;SDS011;11698;47.690;9.132;2023-02-27T16:28:57;3.63;;;2.13;;
23060;SDS011;11698;47.690;9.132;2023-02-27T16:31:33;3.28;;;2.55;;
23060;SDS011;11698;47.690;9.132;2023-02-27T16:34:01;3.05;;;1.92;;
23060;SDS011;11698;47.690;9.132;2023-02-27T16:36:30;4.80;;;2.37;;
23060;SDS011;11698;47.690;9.132;2023-02-27T16:38:57;4.30;;;3.08;;
23060;SDS011;11698;47.690;9.132;2023-02-27T16:41:23;2.27;;;1.80;;
23060;SDS011;11698;47.690;9.132;2023-02-27T16:43:49;4.05;;;1.70;;
23060;SDS011;11698;47.690;9.132;2023-02-27T16:46:17;3.13;;;2.08;;
23060;SDS011;11698;47.690;9.132;2023-02-27T16:48:54;2.33;;;1.55;;
23060;SDS011;11698;47.690;9.132;2023-02-27T16:51:22;3.00;;;1.83;;
23060;SDS011;11698;47.690;9.132;2023-02-27T16:53:49;2.95;;;1.67;;
23060;SDS011;11698;47.690;9.132;2023-02-27T16:56:15;3.05;;;1.70;;
23060;SDS011;11698;47.690;9.132;2023-02-27T16:58:42;2.58;;;1.65;;
23060;SDS011;11698;47.690;9.132;2023-02-27T17:01:08;4.63;;;1.33;;
23060;SDS011;11698;47.690;9.132;2023-02-27T17:03:37;4.70;;;1.80;;
23060;SDS011;11698;47.690;9.132;2023-02-27T17:06:03;3.53;;;1.90;;
23060;SDS011;11698;47.690;9.132;2023-02-27T17:08:29;3.00;;;1.65;;
23060;SDS011;11698;47.690;9.132;2023-02-27T17:10:56;3.67;;;2.03;;
23060;SDS011;11698;47.690;9.132;2023-02-27T17:13:22;3.33;;;1.80;;
23060;SDS011;11698;47.690;9.132;2023-02-27T17:15:48;2.58;;;2.00;;
23060;SDS011;11698;47.690;9.132;2023-02-27T17:18:14;2.00;;;1.67;;
23060;SDS011;11698;47.690;9.132;2023-02-27T17:20:40;3.33;;;1.50;;
23060;SDS011;11698;47.690;9.132;2023-02-27T17:23:08;5.28;;;3.67;;
23060;SDS011;11698;47.690;9.132;2023-02-27T17:25:34;4.65;;;2.75;;
23060;SDS011;11698;47.690;9.132;2023-02-27T17:28:00;3.67;;;2.33;;
23060;SDS011;11698;47.690;9.132;2023-02-27T17:30:26;4.30;;;2.90;;
23060;SDS011;11698;47.690;9.132;2023-02-27T17:32:52;3.03;;;2.20;;
23060;SDS011;11698;47.690;9.132;2023-02-27T17:35:18;4.45;;;3.00;;
23060;SDS011;11698;47.690;9.132;2023-02-27T17:37:44;4.93;;;2.63;;
23060;SDS011;11698;47.690;9.132;2023-02-27T17:40:10;2.80;;;1.73;;
23060;SDS011;11698;47.690;9.132;2023-02-27T17:42:37;3.78;;;1.90;;
23060;SDS011;11698;47.690;9.132;2023-02-27T17:45:04;3.20;;;1.80;;